sensor_id;sensor_type;location;lat;lon;timestamp;pressure;altitude;pressure_sealevel;temperature;humidity
24825;BME280;12910;57.690;11.974;2022-07-26T00:00:03;99357.59;;;17.13;100.00
24825;BME280;12910;57.690;11.974;2022-07-26T00:02:28;99352.50;;;17.10;100.00
24825;BME280;12910;57.690;11.974;2022-07-26T00:04:54;99354.94;;;17.15;100.00
24825;BME280;12910;57.690;11.974;2022-07-26T00:07:19;99351.47;;;17.16;100.00
24825;BME280;12910;57.690;11.974;2022-07-26T00:09:44;99348.19;;;17.11;100.00
24825;BME280;12910;57.690;11.974;2022-07-26T00:12:10;99351.75;;;17.07;100.00
24825;BME280;12910;57.690;11.974;2022-07-26T00:14:35;99355.16;;;17.09;100.00
24825;BME280;12910;57.690;11.974;2022-07-26T00:17:02;99352.47;;;17.12;100.00
24825;BME280;12910;57.690;11.974;2022-07-26T00:19:28;99352.34;;;17.15;100.00
24825;BME280;12910;57.690;11.974;2022-07-26T00:21:53;99353.22;;;17.16;100.00
24825;BME280;12910;57.690;11.974;2022-07-26T00:24:37;99352.50;;;17.10;100.00
24825;BME280;12910;57.690;11.974;2022-07-26T00:27:03;99345.75;;;17.06;100.00
24825;BME280;12910;57.690;11.974;2022-07-26T00:29:29;99349.91;;;17.10;100.00
24825;BME280;12910;57.690;11.974;2022-07-26T00:31:54;99343.09;;;17.08;100.00
24825;BME280;12910;57.690;11.974;2022-07-26T00:34:20;99341.47;;;17.05;100.00
24825;BME280;12910;57.690;11.974;2022-07-26T00:36:45;99338.81;;;17.07;100.00
24825;BME280;12910;57.690;11.974;2022-07-26T00:39:10;99344.66;;;17.13;100.00
24825;BME280;12910;57.690;11.974;2022-07-26T00:41:36;99335.19;;;17.12;100.00
24825;BME280;12910;57.690;11.974;2022-07-26T00:44:01;99341.19;;;17.13;100.00
24825;BME280;12910;57.690;11.974;2022-07-26T00:46:27;99343.84;;;17.11;100.00
24825;BME280;12910;57.690;11.974;2022-07-26T00:48:53;99341.41;;;17.07;100.00
24825;BME280;12910;57.690;11.974;2022-07-26T00:51:19;99340.75;;;17.00;100.00
24825;BME280;12910;57.690;11.974;2022-07-26T00:53:45;99346.03;;;16.97;100.00
24825;BME280;12910;57.690;11.974;2022-07-26T00:56:12;99344.34;;;16.96;100.00
24825;BME280;12910;57.690;11.974;2022-07-26T00:58:39;99336.69;;;16.91;100.00
24825;BME280;12910;57.690;11.974;2022-07-26T01:01:04;99339.22;;;16.93;100.00
24825;BME280;12910;57.690;11.974;2022-07-26T01:03:30;99329.91;;;16.87;100.00
24825;BME280;12910;57.690;11.974;2022-07-26T01:05:55;99330.84;;;16.85;100.00
24825;BME280;12910;57.690;11.974;2022-07-26T01:08:20;99342.03;;;16.85;100.00
24825;BME280;12910;57.690;11.974;2022-07-26T01:10:46;99320.63;;;16.80;100.00
24825;BME280;12910;57.690;11.974;2022-07-26T01:13:11;99335.16;;;16.84;100.00
24825;BME280;12910;57.690;11.974;2022-07-26T01:15:37;99329.84;;;16.89;100.00
24825;BME280;12910;57.690;11.974;2022-07-26T01:18:03;99336.72;;;16.90;100.00
24825;BME280;12910;57.690;11.974;2022-07-26T01:20:28;99335.06;;;16.87;100.00
24825;BME280;12910;57.690;11.974;2022-07-26T01:22:54;99330.94;;;16.81;100.00
24825;BME280;12910;57.690;11.974;2022-07-26T01:25:31;99326.63;;;16.82;100.00
24825;BME280;12910;57.690;11.974;2022-07-26T01:27:57;99323.16;;;16.81;100.00
24825;BME280;12910;57.690;11.974;2022-07-26T01:30:22;99309.47;;;16.78;100.00
24825;BME280;12910;57.690;11.974;2022-07-26T01:32:48;99312.78;;;16.83;100.00
24825;BME280;12910;57.690;11.974;2022-07-26T01:35:13;99311.22;;;16.77;100.00
24825;BME280;12910;57.690;11.974;2022-07-26T01:37:38;99296.69;;;16.73;100.00
24825;BME280;12910;57.690;11.974;2022-07-26T01:40:04;99313.69;;;16.80;100.00
24825;BME280;12910;57.690;11.974;2022-07-26T01:42:30;99307.59;;;16.83;100.00
24825;BME280;12910;57.690;11.974;2022-07-26T01:44:55;99295.56;;;16.82;100.00
24825;BME280;12910;57.690;11.974;2022-07-26T01:47:21;99293.94;;;16.78;100.00
24825;BME280;12910;57.690;11.974;2022-07-26T01:49:46;99295.66;;;16.79;100.00
24825;BME280;12910;57.690;11.974;2022-07-26T01:52:12;99282.00;;;16.74;100.00
24825;BME280;12910;57.690;11.974;2022-07-26T01:54:37;99286.34;;;16.73;100.00
24825;BME280;12910;57.690;11.974;2022-07-26T01:57:03;99287.22;;;16.72;100.00
24825;BME280;12910;57.690;11.974;2022-07-26T01:59:28;99289.75;;;16.74;100.00
24825;BME280;12910;57.690;11.974;2022-07-26T02:01:53;99287.28;;;16.71;100.00
24825;BME280;12910;57.690;11.974;2022-07-26T02:04:19;99289.72;;;16.75;100.00
24825;BME280;12910;57.690;11.974;2022-07-26T02:07:03;99288.13;;;16.71;100.00
24825;BME280;12910;57.690;11.974;2022-07-26T02:09:28;99284.03;;;16.64;100.00
24825;BME280;12910;57.690;11.974;2022-07-26T02:11:54;99276.47;;;16.58;100.00
24825;BME280;12910;57.690;11.974;2022-07-26T02:14:19;99288.41;;;16.62;100.00
24825;BME280;12910;57.690;11.974;2022-07-26T02:16:44;99278.25;;;16.56;100.00
24825;BME280;12910;57.690;11.974;2022-07-26T02:19:10;99275.59;;;16.57;100.00
24825;BME280;12910;57.690;11.974;2022-07-26T02:21:35;99279.06;;;16.56;100.00
24825;BME280;12910;57.690;11.974;2022-07-26T02:24:00;99270.34;;;16.60;100.00
24825;BME280;12910;57.690;11.974;2022-07-26T02:26:26;99277.16;;;16.63;100.00
24825;BME280;12910;57.690;11.974;2022-07-26T02:28:51;99278.91;;;16.62;100.00
24825;BME280;12910;57.690;11.974;2022-07-26T02:31:17;99278.03;;;16.62;100.00
24825;BME280;12910;57.690;11.974;2022-07-26T02:33:42;99273.88;;;16.58;100.00
24825;BME280;12910;57.690;11.974;2022-07-26T02:36:07;99281.66;;;16.56;100.00
24825;BME280;12910;57.690;11.974;2022-07-26T02:38:33;99283.41;;;16.56;100.00
24825;BME280;12910;57.690;11.974;2022-07-26T02:41:13;99275.03;;;16.47;100.00
24825;BME280;12910;57.690;11.974;2022-07-26T02:43:39;99263.09;;;16.43;100.00
24825;BME280;12910;57.690;11.974;2022-07-26T02:46:04;99262.25;;;16.43;100.00
24825;BME280;12910;57.690;11.974;2022-07-26T02:48:30;99266.56;;;16.42;100.00
24825;BME280;12910;57.690;11.974;2022-07-26T02:50:55;99265.66;;;16.43;100.00
24825;BME280;12910;57.690;11.974;2022-07-26T02:53:21;99263.16;;;16.40;100.00
24825;BME280;12910;57.690;11.974;2022-07-26T02:55:46;99259.75;;;16.40;100.00
24825;BME280;12910;57.690;11.974;2022-07-26T02:58:12;99258.94;;;16.38;100.00
24825;BME280;12910;57.690;11.974;2022-07-26T03:00:37;99249.50;;;16.36;100.00
24825;BME280;12910;57.690;11.974;2022-07-26T03:03:02;99256.41;;;16.36;100.00
24825;BME280;12910;57.690;11.974;2022-07-26T03:05:28;99249.50;;;16.36;100.00
24825;BME280;12910;57.690;11.974;2022-07-26T03:07:53;99253.63;;;16.42;100.00
24825;BME280;12910;57.690;11.974;2022-07-26T03:10:19;99244.28;;;16.38;100.00
24825;BME280;12910;57.690;11.974;2022-07-26T03:12:44;99246.97;;;16.35;100.00
24825;BME280;12910;57.690;11.974;2022-07-26T03:15:10;99254.72;;;16.35;100.00
24825;BME280;12910;57.690;11.974;2022-07-26T03:17:36;99247.84;;;16.34;100.00
24825;BME280;12910;57.690;11.974;2022-07-26T03:20:01;99253.91;;;16.33;100.00
24825;BME280;12910;57.690;11.974;2022-07-26T03:22:27;99257.44;;;16.30;100.00
24825;BME280;12910;57.690;11.974;2022-07-26T03:24:52;99245.41;;;16.29;100.00
24825;BME280;12910;57.690;11.974;2022-07-26T03:27:18;99248.06;;;16.26;100.00
24825;BME280;12910;57.690;11.974;2022-07-26T03:29:43;99242.06;;;16.26;100.00
24825;BME280;12910;57.690;11.974;2022-07-26T03:32:08;99250.72;;;16.25;100.00
24825;BME280;12910;57.690;11.974;2022-07-26T03:34:34;99238.66;;;16.24;100.00
24825;BME280;12910;57.690;11.974;2022-07-26T03:37:00;99240.22;;;16.29;100.00
24825;BME280;12910;57.690;11.974;2022-07-26T03:39:25;99230.88;;;16.25;100.00
24825;BME280;12910;57.690;11.974;2022-07-26T03:41:51;99228.94;;;16.32;100.00
24825;BME280;12910;57.690;11.974;2022-07-26T03:44:16;99215.59;;;16.17;100.00
24825;BME280;12910;57.690;11.974;2022-07-26T03:46:41;99227.53;;;16.22;100.00
24825;BME280;12910;57.690;11.974;2022-07-26T03:49:07;99235.19;;;16.25;100.00
24825;BME280;12910;57.690;11.974;2022-07-26T03:51:32;99228.53;;;16.17;100.00
24825;BME280;12910;57.690;11.974;2022-07-26T03:53:58;99221.72;;;16.13;100.00
24825;BME280;12910;57.690;11.974;2022-07-26T03:56:24;99222.63;;;16.12;100.00
24825;BME280;12910;57.690;11.974;2022-07-26T03:59:01;99227.97;;;16.06;100.00
24825;BME280;12910;57.690;11.974;2022-07-26T04:01:26;99228.19;;;15.98;100.00
24825;BME280;12910;57.690;11.974;2022-07-26T04:03:52;99228.31;;;15.94;100.00
24825;BME280;12910;57.690;11.974;2022-07-26T04:06:18;99221.66;;;15.86;100.00
24825;BME280;12910;57.690;11.974;2022-07-26T04:08:43;99231.16;;;15.84;100.00
24825;BME280;12910;57.690;11.974;2022-07-26T04:11:09;99230.31;;;15.82;100.00
24825;BME280;12910;57.690;11.974;2022-07-26T04:13:34;99239.25;;;15.72;100.00
24825;BME280;12910;57.690;11.974;2022-07-26T04:16:01;99236.53;;;15.77;100.00
24825;BME280;12910;57.690;11.974;2022-07-26T04:18:26;99222.13;;;15.68;100.00
24825;BME280;12910;57.690;11.974;2022-07-26T04:20:52;99253.94;;;15.70;100.00
24825;BME280;12910;57.690;11.974;2022-07-26T04:23:17;99246.44;;;15.61;100.00
24825;BME280;12910;57.690;11.974;2022-07-26T04:25:43;99252.63;;;15.53;100.00
24825;BME280;12910;57.690;11.974;2022-07-26T04:28:09;99252.00;;;15.45;100.00
24825;BME280;12910;57.690;11.974;2022-07-26T04:30:35;99238.06;;;15.52;100.00
24825;BME280;12910;57.690;11.974;2022-07-26T04:33:00;99250.78;;;15.58;100.00
24825;BME280;12910;57.690;11.974;2022-07-26T04:35:26;99260.22;;;15.60;100.00
24825;BME280;12910;57.690;11.974;2022-07-26T04:37:51;99276.84;;;15.49;100.00
24825;BME280;12910;57.690;11.974;2022-07-26T04:40:20;99276.09;;;15.46;100.00
24825;BME280;12910;57.690;11.974;2022-07-26T04:42:47;99273.38;;;15.50;100.00
24825;BME280;12910;57.690;11.974;2022-07-26T04:45:13;99266.47;;;15.52;100.00
24825;BME280;12910;57.690;11.974;2022-07-26T04:47:43;99265.53;;;15.53;100.00
24825;BME280;12910;57.690;11.974;2022-07-26T04:50:10;99266.56;;;15.48;100.00
24825;BME280;12910;57.690;11.974;2022-07-26T04:52:35;99268.09;;;15.55;100.00
24825;BME280;12910;57.690;11.974;2022-07-26T04:55:01;99262.88;;;15.56;100.00
24825;BME280;12910;57.690;11.974;2022-07-26T04:57:26;99262.06;;;15.54;100.00
24825;BME280;12910;57.690;11.974;2022-07-26T04:59:51;99259.53;;;15.53;100.00
24825;BME280;12910;57.690;11.974;2022-07-26T05:02:17;99247.56;;;15.50;100.00
24825;BME280;12910;57.690;11.974;2022-07-26T05:04:43;99248.69;;;15.40;100.00
24825;BME280;12910;57.690;11.974;2022-07-26T05:07:09;99251.22;;;15.43;100.00
24825;BME280;12910;57.690;11.974;2022-07-26T05:09:34;99244.13;;;15.50;100.00
24825;BME280;12910;57.690;11.974;2022-07-26T05:12:00;99254.44;;;15.50;100.00
24825;BME280;12910;57.690;11.974;2022-07-26T05:14:25;99264.91;;;15.45;100.00
24825;BME280;12910;57.690;11.974;2022-07-26T05:16:51;99259.66;;;15.48;100.00
24825;BME280;12910;57.690;11.974;2022-07-26T05:19:16;99264.00;;;15.46;100.00
24825;BME280;12910;57.690;11.974;2022-07-26T05:21:41;99265.72;;;15.47;100.00
24825;BME280;12910;57.690;11.974;2022-07-26T05:24:07;99261.31;;;15.51;100.00
24825;BME280;12910;57.690;11.974;2022-07-26T05:26:33;99262.25;;;15.48;100.00
24825;BME280;12910;57.690;11.974;2022-07-26T05:28:58;99254.53;;;15.47;100.00
24825;BME280;12910;57.690;11.974;2022-07-26T05:31:24;99256.13;;;15.52;100.00
24825;BME280;12910;57.690;11.974;2022-07-26T05:33:49;99263.78;;;15.55;100.00
24825;BME280;12910;57.690;11.974;2022-07-26T05:36:15;99267.16;;;15.57;100.00
24825;BME280;12910;57.690;11.974;2022-07-26T05:38:40;99258.53;;;15.58;100.00
24825;BME280;12910;57.690;11.974;2022-07-26T05:41:06;99266.28;;;15.58;100.00
24825;BME280;12910;57.690;11.974;2022-07-26T05:43:31;99268.88;;;15.58;100.00
24825;BME280;12910;57.690;11.974;2022-07-26T05:45:57;99273.41;;;15.49;100.00
24825;BME280;12910;57.690;11.974;2022-07-26T05:48:23;99283.84;;;15.46;100.00
24825;BME280;12910;57.690;11.974;2022-07-26T05:50:48;99288.88;;;15.50;100.00
24825;BME280;12910;57.690;11.974;2022-07-26T05:53:14;99281.94;;;15.52;100.00
24825;BME280;12910;57.690;11.974;2022-07-26T05:55:40;99280.44;;;15.43;100.00
24825;BME280;12910;57.690;11.974;2022-07-26T05:58:05;99301.78;;;15.50;100.00
24825;BME280;12910;57.690;11.974;2022-07-26T06:00:31;99292.41;;;15.46;100.00
24825;BME280;12910;57.690;11.974;2022-07-26T06:02:56;99296.69;;;15.47;100.00
24825;BME280;12910;57.690;11.974;2022-07-26T06:05:21;99289.00;;;15.44;100.00
24825;BME280;12910;57.690;11.974;2022-07-26T06:07:47;99301.03;;;15.47;100.00
24825;BME280;12910;57.690;11.974;2022-07-26T06:10:12;99304.56;;;15.42;100.00
24825;BME280;12910;57.690;11.974;2022-07-26T06:12:38;99303.63;;;15.45;100.00
24825;BME280;12910;57.690;11.974;2022-07-26T06:15:04;99300.22;;;15.45;100.00
24825;BME280;12910;57.690;11.974;2022-07-26T06:17:30;99306.72;;;15.60;100.00
24825;BME280;12910;57.690;11.974;2022-07-26T06:19:56;99310.13;;;15.62;100.00
24825;BME280;12910;57.690;11.974;2022-07-26T06:22:22;99303.31;;;15.57;100.00
24825;BME280;12910;57.690;11.974;2022-07-26T06:24:47;99311.00;;;15.61;100.00
24825;BME280;12910;57.690;11.974;2022-07-26T06:27:12;99318.81;;;15.57;100.00
24825;BME280;12910;57.690;11.974;2022-07-26T06:29:38;99305.25;;;15.49;100.00
24825;BME280;12910;57.690;11.974;2022-07-26T06:32:04;99319.00;;;15.51;100.00
24825;BME280;12910;57.690;11.974;2022-07-26T06:34:30;99323.28;;;15.51;100.00
24825;BME280;12910;57.690;11.974;2022-07-26T06:36:55;99329.44;;;15.47;100.00
24825;BME280;12910;57.690;11.974;2022-07-26T06:39:20;99331.16;;;15.46;100.00
24825;BME280;12910;57.690;11.974;2022-07-26T06:41:46;99330.38;;;15.42;100.00
24825;BME280;12910;57.690;11.974;2022-07-26T06:44:11;99341.53;;;15.45;100.00
24825;BME280;12910;57.690;11.974;2022-07-26T06:46:37;99340.81;;;15.38;100.00
24825;BME280;12910;57.690;11.974;2022-07-26T06:49:02;99326.16;;;15.40;100.00
24825;BME280;12910;57.690;11.974;2022-07-26T06:51:28;99348.50;;;15.41;100.00
24825;BME280;12910;57.690;11.974;2022-07-26T06:53:53;99335.50;;;15.44;100.00
24825;BME280;12910;57.690;11.974;2022-07-26T06:56:19;99333.66;;;15.49;100.00
24825;BME280;12910;57.690;11.974;2022-07-26T06:58:44;99346.63;;;15.46;100.00
24825;BME280;12910;57.690;11.974;2022-07-26T07:01:10;99344.28;;;15.37;100.00
24825;BME280;12910;57.690;11.974;2022-07-26T07:03:35;99349.97;;;15.51;100.00
24825;BME280;12910;57.690;11.974;2022-07-26T07:06:01;99336.41;;;15.43;100.00
24825;BME280;12910;57.690;11.974;2022-07-26T07:08:26;99343.25;;;15.44;100.00
24825;BME280;12910;57.690;11.974;2022-07-26T07:10:52;99345.53;;;15.56;100.00
24825;BME280;12910;57.690;11.974;2022-07-26T07:13:18;99350.63;;;15.60;100.00
24825;BME280;12910;57.690;11.974;2022-07-26T07:15:43;99353.22;;;15.60;100.00
24825;BME280;12910;57.690;11.974;2022-07-26T07:18:09;99355.91;;;15.53;100.00
24825;BME280;12910;57.690;11.974;2022-07-26T07:20:35;99354.28;;;15.51;100.00
24825;BME280;12910;57.690;11.974;2022-07-26T07:23:00;99344.81;;;15.51;100.00
24825;BME280;12910;57.690;11.974;2022-07-26T07:25:25;99359.31;;;15.57;100.00
24825;BME280;12910;57.690;11.974;2022-07-26T07:27:51;99354.03;;;15.60;100.00
24825;BME280;12910;57.690;11.974;2022-07-26T07:30:16;99371.94;;;15.68;100.00
24825;BME280;12910;57.690;11.974;2022-07-26T07:32:42;99365.13;;;15.65;100.00
24825;BME280;12910;57.690;11.974;2022-07-26T07:35:08;99368.63;;;15.63;100.00
24825;BME280;12910;57.690;11.974;2022-07-26T07:37:34;99363.78;;;15.50;100.00
24825;BME280;12910;57.690;11.974;2022-07-26T07:40:00;99365.38;;;15.54;100.00
24825;BME280;12910;57.690;11.974;2022-07-26T07:42:28;99393.22;;;15.43;100.00
24825;BME280;12910;57.690;11.974;2022-07-26T07:44:53;99380.97;;;15.51;100.00
24825;BME280;12910;57.690;11.974;2022-07-26T07:47:18;99388.72;;;15.51;100.00
24825;BME280;12910;57.690;11.974;2022-07-26T07:49:44;99373.31;;;15.47;100.00
24825;BME280;12910;57.690;11.974;2022-07-26T07:52:09;99392.06;;;15.53;100.00
24825;BME280;12910;57.690;11.974;2022-07-26T07:54:35;99381.63;;;15.60;100.00
24825;BME280;12910;57.690;11.974;2022-07-26T07:57:00;99361.78;;;15.62;100.00
24825;BME280;12910;57.690;11.974;2022-07-26T07:59:25;99370.25;;;15.67;100.00
24825;BME280;12910;57.690;11.974;2022-07-26T08:01:51;99377.91;;;15.70;100.00
24825;BME280;12910;57.690;11.974;2022-07-26T08:04:16;99389.06;;;15.72;100.00
24825;BME280;12910;57.690;11.974;2022-07-26T08:06:42;99398.59;;;15.70;100.00
24825;BME280;12910;57.690;11.974;2022-07-26T08:09:08;99402.00;;;15.70;100.00
24825;BME280;12910;57.690;11.974;2022-07-26T08:11:33;99387.22;;;15.77;100.00
24825;BME280;12910;57.690;11.974;2022-07-26T08:13:59;99389.06;;;15.72;100.00
24825;BME280;12910;57.690;11.974;2022-07-26T08:16:24;99377.75;;;15.76;100.00
24825;BME280;12910;57.690;11.974;2022-07-26T08:18:50;99392.38;;;15.77;100.00
24825;BME280;12910;57.690;11.974;2022-07-26T08:21:15;99375.63;;;15.94;100.00
24825;BME280;12910;57.690;11.974;2022-07-26T08:23:41;99376.25;;;16.02;100.00
24825;BME280;12910;57.690;11.974;2022-07-26T08:26:06;99384.06;;;16.00;100.00
24825;BME280;12910;57.690;11.974;2022-07-26T08:28:32;99401.16;;;16.06;100.00
24825;BME280;12910;57.690;11.974;2022-07-26T08:30:57;99396.94;;;16.02;100.00
24825;BME280;12910;57.690;11.974;2022-07-26T08:33:23;99384.06;;;16.00;100.00
24825;BME280;12910;57.690;11.974;2022-07-26T08:35:48;99400.09;;;16.13;100.00
24825;BME280;12910;57.690;11.974;2022-07-26T08:38:14;99403.56;;;16.12;100.00
24825;BME280;12910;57.690;11.974;2022-07-26T08:40:39;99418.28;;;16.10;100.00
24825;BME280;12910;57.690;11.974;2022-07-26T08:43:05;99417.19;;;16.19;100.00
24825;BME280;12910;57.690;11.974;2022-07-26T08:45:30;99413.91;;;16.12;100.00
24825;BME280;12910;57.690;11.974;2022-07-26T08:47:57;99418.53;;;16.01;100.00
24825;BME280;12910;57.690;11.974;2022-07-26T08:50:24;99432.50;;;15.92;100.00
24825;BME280;12910;57.690;11.974;2022-07-26T08:52:50;99422.94;;;15.96;100.00
24825;BME280;12910;57.690;11.974;2022-07-26T08:55:18;99416.19;;;15.92;100.00
24825;BME280;12910;57.690;11.974;2022-07-26T08:57:44;99412.69;;;15.93;100.00
24825;BME280;12910;57.690;11.974;2022-07-26T09:00:17;99406.72;;;15.91;100.00
24825;BME280;12910;57.690;11.974;2022-07-26T09:02:43;99419.72;;;15.87;100.00
24825;BME280;12910;57.690;11.974;2022-07-26T09:05:09;99435.78;;;15.99;100.00
24825;BME280;12910;57.690;11.974;2022-07-26T09:07:36;99422.72;;;16.05;100.00
24825;BME280;12910;57.690;11.974;2022-07-26T09:10:14;99449.31;;;16.09;100.00
24825;BME280;12910;57.690;11.974;2022-07-26T09:12:41;99441.97;;;15.93;100.00
24825;BME280;12910;57.690;11.974;2022-07-26T09:15:16;99442.22;;;15.81;100.00
24825;BME280;12910;57.690;11.974;2022-07-26T09:17:47;99450.81;;;15.83;100.00
24825;BME280;12910;57.690;11.974;2022-07-26T09:25:26;99440.22;;;15.94;100.00
24825;BME280;12910;57.690;11.974;2022-07-26T09:27:52;99464.13;;;16.02;100.00
24825;BME280;12910;57.690;11.974;2022-07-26T09:30:18;99460.66;;;16.03;100.00
24825;BME280;12910;57.690;11.974;2022-07-26T09:32:58;99472.94;;;15.95;100.00
24825;BME280;12910;57.690;11.974;2022-07-26T09:35:24;99456.41;;;16.00;100.00
24825;BME280;12910;57.690;11.974;2022-07-26T09:37:49;99454.50;;;16.09;100.00
24825;BME280;12910;57.690;11.974;2022-07-26T09:40:17;99458.81;;;16.08;100.00
24825;BME280;12910;57.690;11.974;2022-07-26T09:42:56;99488.31;;;16.01;100.00
24825;BME280;12910;57.690;11.974;2022-07-26T09:45:23;99474.69;;;15.94;100.00
24825;BME280;12910;57.690;11.974;2022-07-26T09:47:49;99482.03;;;16.10;100.00
24825;BME280;12910;57.690;11.974;2022-07-26T09:50:17;99466.47;;;16.11;100.00
24825;BME280;12910;57.690;11.974;2022-07-26T09:53:15;99483.19;;;15.98;100.00
24825;BME280;12910;57.690;11.974;2022-07-26T09:58:10;99452.19;;;15.98;100.00
24825;BME280;12910;57.690;11.974;2022-07-26T10:00:38;99464.72;;;16.13;100.00
24825;BME280;12910;57.690;11.974;2022-07-26T10:03:04;99462.47;;;15.99;100.00
24825;BME280;12910;57.690;11.974;2022-07-26T10:05:31;99472.09;;;15.94;100.00
24825;BME280;12910;57.690;11.974;2022-07-26T10:07:57;99479.78;;;15.96;100.00
24825;BME280;12910;57.690;11.974;2022-07-26T10:10:33;99466.75;;;16.00;100.00
24825;BME280;12910;57.690;11.974;2022-07-26T10:12:59;99480.91;;;15.85;100.00
24825;BME280;12910;57.690;11.974;2022-07-26T10:15:41;99476.75;;;15.78;100.00
24825;BME280;12910;57.690;11.974;2022-07-26T10:18:08;99460.31;;;15.81;100.00
24825;BME280;12910;57.690;11.974;2022-07-26T10:20:50;99472.22;;;15.88;100.00
24825;BME280;12910;57.690;11.974;2022-07-26T10:23:37;99480.69;;;15.95;100.00
24825;BME280;12910;57.690;11.974;2022-07-26T10:26:05;99479.91;;;15.91;100.00
24825;BME280;12910;57.690;11.974;2022-07-26T10:28:33;99476.59;;;15.86;100.00
24825;BME280;12910;57.690;11.974;2022-07-26T10:33:48;99480.78;;;15.92;100.00
24825;BME280;12910;57.690;11.974;2022-07-26T10:36:31;99479.72;;;15.99;100.00
24825;BME280;12910;57.690;11.974;2022-07-26T10:39:03;99470.16;;;16.02;100.00
24825;BME280;12910;57.690;11.974;2022-07-26T10:41:37;99493.50;;;15.99;100.00
24825;BME280;12910;57.690;11.974;2022-07-26T10:44:39;99482.69;;;15.82;100.00
24825;BME280;12910;57.690;11.974;2022-07-26T10:47:16;99467.50;;;15.68;100.00
24825;BME280;12910;57.690;11.974;2022-07-26T10:55:04;99488.13;;;15.71;100.00
24825;BME280;12910;57.690;11.974;2022-07-26T10:57:42;99494.38;;;15.61;100.00
24825;BME280;12910;57.690;11.974;2022-07-26T11:00:11;99487.16;;;15.36;100.00
24825;BME280;12910;57.690;11.974;2022-07-26T11:02:37;99478.28;;;15.49;100.00
24825;BME280;12910;57.690;11.974;2022-07-26T11:05:07;99484.88;;;15.61;100.00
24825;BME280;12910;57.690;11.974;2022-07-26T11:07:51;99489.06;;;15.67;100.00
24825;BME280;12910;57.690;11.974;2022-07-26T11:10:22;99505.22;;;15.75;100.00
24825;BME280;12910;57.690;11.974;2022-07-26T11:12:47;99514.75;;;15.73;100.00
24825;BME280;12910;57.690;11.974;2022-07-26T11:15:21;99513.03;;;15.73;100.00
24825;BME280;12910;57.690;11.974;2022-07-26T11:17:47;99518.34;;;15.66;100.00
24825;BME280;12910;57.690;11.974;2022-07-26T11:20:23;99516.34;;;15.79;100.00
24825;BME280;12910;57.690;11.974;2022-07-26T11:22:49;99518.09;;;15.78;100.00
24825;BME280;12910;57.690;11.974;2022-07-26T11:25:20;99514.56;;;15.81;100.00
24825;BME280;12910;57.690;11.974;2022-07-26T11:28:11;99525.94;;;15.73;100.00
24825;BME280;12910;57.690;11.974;2022-07-26T11:30:54;99518.84;;;15.82;100.00
24825;BME280;12910;57.690;11.974;2022-07-26T11:33:20;99524.94;;;15.79;100.00
24825;BME280;12910;57.690;11.974;2022-07-26T11:35:58;99528.47;;;15.77;100.00
24825;BME280;12910;57.690;11.974;2022-07-26T11:38:23;99534.31;;;15.83;100.00
24825;BME280;12910;57.690;11.974;2022-07-26T11:40:49;99521.38;;;15.86;100.00
24825;BME280;12910;57.690;11.974;2022-07-26T11:43:14;99531.53;;;15.93;100.00
24825;BME280;12910;57.690;11.974;2022-07-26T11:45:39;99533.22;;;15.95;100.00
24825;BME280;12910;57.690;11.974;2022-07-26T11:48:05;99519.66;;;15.85;100.00
24825;BME280;12910;57.690;11.974;2022-07-26T11:50:31;99534.88;;;15.98;100.00
24825;BME280;12910;57.690;11.974;2022-07-26T11:52:57;99530.59;;;15.97;100.00
24825;BME280;12910;57.690;11.974;2022-07-26T11:55:27;99536.44;;;16.05;100.00
24825;BME280;12910;57.690;11.974;2022-07-26T11:57:53;99542.34;;;16.10;100.00
24825;BME280;12910;57.690;11.974;2022-07-26T12:00:19;99538.78;;;16.14;100.00
24825;BME280;12910;57.690;11.974;2022-07-26T12:02:45;99543.84;;;16.20;100.00
24825;BME280;12910;57.690;11.974;2022-07-26T12:05:15;99550.44;;;16.32;100.00
24825;BME280;12910;57.690;11.974;2022-07-26T12:08:00;99551.72;;;16.14;100.00
24825;BME280;12910;57.690;11.974;2022-07-26T12:10:28;99554.34;;;16.13;100.00
24825;BME280;12910;57.690;11.974;2022-07-26T12:13:14;99563.44;;;16.29;100.00
24825;BME280;12910;57.690;11.974;2022-07-26T12:15:48;99566.16;;;16.23;100.00
24825;BME280;12910;57.690;11.974;2022-07-26T12:18:27;99560.28;;;16.16;100.00
24825;BME280;12910;57.690;11.974;2022-07-26T12:23:22;99545.72;;;16.12;100.00
24825;BME280;12910;57.690;11.974;2022-07-26T12:25:48;99556.81;;;16.17;100.00
24825;BME280;12910;57.690;11.974;2022-07-26T12:28:13;99540.44;;;16.18;100.00
24825;BME280;12910;57.690;11.974;2022-07-26T12:30:39;99533.44;;;16.22;100.00
24825;BME280;12910;57.690;11.974;2022-07-26T12:33:04;99542.91;;;16.22;100.00
24825;BME280;12910;57.690;11.974;2022-07-26T12:35:31;99541.19;;;16.22;100.00
24825;BME280;12910;57.690;11.974;2022-07-26T12:37:59;99536.06;;;16.20;100.00
24825;BME280;12910;57.690;11.974;2022-07-26T12:40:26;99551.44;;;16.27;100.00
24825;BME280;12910;57.690;11.974;2022-07-26T12:42:57;99544.72;;;16.19;100.00
24825;BME280;12910;57.690;11.974;2022-07-26T12:45:27;99544.41;;;16.32;100.00
24825;BME280;12910;57.690;11.974;2022-07-26T12:47:55;99542.56;;;16.35;100.00
24825;BME280;12910;57.690;11.974;2022-07-26T12:50:23;99537.03;;;16.16;100.00
24825;BME280;12910;57.690;11.974;2022-07-26T12:52:48;99553.34;;;16.18;100.00
24825;BME280;12910;57.690;11.974;2022-07-26T12:55:17;99541.25;;;16.20;100.00
24825;BME280;12910;57.690;11.974;2022-07-26T12:57:44;99561.00;;;16.22;100.00